sensor_id;sensor_type;location;lat;lon;timestamp;P1;durP1;ratioP1;P2;durP2;ratioP2
81967;SDS011;71468;56.880;60.616;2023-08-06T00:01:52;87.07;;;38.13;;
81967;SDS011;71468;56.880;60.616;2023-08-06T00:04:18;96.28;;;36.88;;
81967;SDS011;71468;56.880;60.616;2023-08-06T00:06:45;81.78;;;35.88;;
81967;SDS011;71468;56.880;60.616;2023-08-06T00:09:12;89.78;;;36.13;;
81967;SDS011;71468;56.880;60.616;2023-08-06T00:11:39;88.00;;;36.85;;
81967;SDS011;71468;56.880;60.616;2023-08-06T00:14:07;84.60;;;35.90;;
81967;SDS011;71468;56.880;60.616;2023-08-06T00:16:33;77.95;;;35.30;;
81967;SDS011;71468;56.880;60.616;2023-08-06T00:19:00;86.70;;;35.53;;
81967;SDS011;71468;56.880;60.616;2023-08-06T00:21:27;87.45;;;37.20;;
81967;SDS011;71468;56.880;60.616;2023-08-06T00:23:53;86.25;;;37.05;;
81967;SDS011;71468;56.880;60.616;2023-08-06T00:26:20;84.60;;;35.35;;
81967;SDS011;71468;56.880;60.616;2023-08-06T00:28:47;80.97;;;37.13;;
81967;SDS011;71468;56.880;60.616;2023-08-06T00:31:13;80.78;;;33.40;;
81967;SDS011;71468;56.880;60.616;2023-08-06T00:33:41;79.38;;;35.70;;
81967;SDS011;71468;56.880;60.616;2023-08-06T00:36:07;82.10;;;35.90;;
81967;SDS011;71468;56.880;60.616;2023-08-06T00:38:35;87.93;;;35.92;;
81967;SDS011;71468;56.880;60.616;2023-08-06T00:41:01;80.38;;;35.88;;
81967;SDS011;71468;56.880;60.616;2023-08-06T00:43:28;89.25;;;36.50;;
81967;SDS011;71468;56.880;60.616;2023-08-06T00:45:55;87.57;;;35.92;;
81967;SDS011;71468;56.880;60.616;2023-08-06T00:48:22;79.45;;;34.13;;
81967;SDS011;71468;56.880;60.616;2023-08-06T00:50:48;78.45;;;35.13;;
81967;SDS011;71468;56.880;60.616;2023-08-06T00:53:15;80.00;;;35.65;;
81967;SDS011;71468;56.880;60.616;2023-08-06T00:55:43;86.85;;;35.20;;
81967;SDS011;71468;56.880;60.616;2023-08-06T00:58:11;75.10;;;33.17;;
81967;SDS011;71468;56.880;60.616;2023-08-06T01:00:39;79.63;;;34.85;;
81967;SDS011;71468;56.880;60.616;2023-08-06T01:03:06;78.10;;;34.88;;
81967;SDS011;71468;56.880;60.616;2023-08-06T01:05:32;79.65;;;33.47;;
81967;SDS011;71468;56.880;60.616;2023-08-06T01:10:51;92.78;;;35.45;;
81967;SDS011;71468;56.880;60.616;2023-08-06T01:13:51;81.72;;;33.97;;
81967;SDS011;71468;56.880;60.616;2023-08-06T01:16:26;79.35;;;34.92;;
81967;SDS011;71468;56.880;60.616;2023-08-06T01:18:53;76.07;;;34.60;;
81967;SDS011;71468;56.880;60.616;2023-08-06T01:21:19;78.75;;;33.60;;
81967;SDS011;71468;56.880;60.616;2023-08-06T01:23:46;79.68;;;33.95;;
81967;SDS011;71468;56.880;60.616;2023-08-06T01:26:24;83.45;;;33.75;;
81967;SDS011;71468;56.880;60.616;2023-08-06T01:28:59;84.80;;;35.53;;
81967;SDS011;71468;56.880;60.616;2023-08-06T01:31:35;74.80;;;32.58;;
81967;SDS011;71468;56.880;60.616;2023-08-06T01:34:04;71.68;;;30.58;;
81967;SDS011;71468;56.880;60.616;2023-08-06T01:36:32;76.40;;;32.00;;
81967;SDS011;71468;56.880;60.616;2023-08-06T01:39:00;68.95;;;31.17;;
81967;SDS011;71468;56.880;60.616;2023-08-06T01:41:27;67.35;;;30.60;;
81967;SDS011;71468;56.880;60.616;2023-08-06T01:43:53;68.15;;;31.58;;
81967;SDS011;71468;56.880;60.616;2023-08-06T01:46:20;66.53;;;31.08;;
81967;SDS011;71468;56.880;60.616;2023-08-06T01:48:46;74.28;;;31.98;;
81967;SDS011;71468;56.880;60.616;2023-08-06T01:51:13;71.10;;;33.45;;
81967;SDS011;71468;56.880;60.616;2023-08-06T01:53:39;75.38;;;32.00;;
81967;SDS011;71468;56.880;60.616;2023-08-06T01:56:06;71.63;;;33.63;;
81967;SDS011;71468;56.880;60.616;2023-08-06T01:58:33;84.07;;;32.58;;
81967;SDS011;71468;56.880;60.616;2023-08-06T02:01:00;81.25;;;32.35;;
81967;SDS011;71468;56.880;60.616;2023-08-06T02:03:28;78.40;;;33.92;;
81967;SDS011;71468;56.880;60.616;2023-08-06T02:05:54;72.75;;;34.08;;
81967;SDS011;71468;56.880;60.616;2023-08-06T02:08:21;72.70;;;31.92;;
81967;SDS011;71468;56.880;60.616;2023-08-06T02:10:48;70.93;;;31.52;;
81967;SDS011;71468;56.880;60.616;2023-08-06T02:13:15;77.97;;;32.58;;
81967;SDS011;71468;56.880;60.616;2023-08-06T02:15:42;73.97;;;32.65;;
81967;SDS011;71468;56.880;60.616;2023-08-06T02:18:14;72.97;;;31.85;;
81967;SDS011;71468;56.880;60.616;2023-08-06T02:20:41;74.07;;;31.88;;
81967;SDS011;71468;56.880;60.616;2023-08-06T02:23:08;86.18;;;32.35;;
81967;SDS011;71468;56.880;60.616;2023-08-06T02:25:35;72.03;;;32.10;;
81967;SDS011;71468;56.880;60.616;2023-08-06T02:28:01;65.28;;;31.27;;
81967;SDS011;71468;56.880;60.616;2023-08-06T02:30:28;75.32;;;31.45;;
81967;SDS011;71468;56.880;60.616;2023-08-06T02:32:55;80.00;;;31.77;;
81967;SDS011;71468;56.880;60.616;2023-08-06T02:35:22;79.60;;;32.35;;
81967;SDS011;71468;56.880;60.616;2023-08-06T02:37:48;75.90;;;32.63;;
81967;SDS011;71468;56.880;60.616;2023-08-06T02:40:15;71.85;;;32.45;;
81967;SDS011;71468;56.880;60.616;2023-08-06T02:42:42;71.72;;;31.60;;
81967;SDS011;71468;56.880;60.616;2023-08-06T02:45:08;74.30;;;32.22;;
81967;SDS011;71468;56.880;60.616;2023-08-06T02:47:35;70.03;;;32.15;;
81967;SDS011;71468;56.880;60.616;2023-08-06T02:50:02;82.70;;;32.33;;
81967;SDS011;71468;56.880;60.616;2023-08-06T02:52:30;84.93;;;33.88;;
81967;SDS011;71468;56.880;60.616;2023-08-06T02:54:56;72.47;;;33.30;;
81967;SDS011;71468;56.880;60.616;2023-08-06T02:57:28;69.13;;;30.55;;
81967;SDS011;71468;56.880;60.616;2023-08-06T02:59:56;75.13;;;33.33;;
81967;SDS011;71468;56.880;60.616;2023-08-06T03:02:23;59.67;;;28.85;;
81967;SDS011;71468;56.880;60.616;2023-08-06T03:04:59;67.72;;;30.25;;
81967;SDS011;71468;56.880;60.616;2023-08-06T03:07:29;50.20;;;25.17;;
81967;SDS011;71468;56.880;60.616;2023-08-06T03:10:03;53.38;;;24.67;;
81967;SDS011;71468;56.880;60.616;2023-08-06T03:12:30;52.42;;;26.98;;
81967;SDS011;71468;56.880;60.616;2023-08-06T03:14:59;52.53;;;24.90;;
81967;SDS011;71468;56.880;60.616;2023-08-06T03:17:26;49.80;;;24.48;;
81967;SDS011;71468;56.880;60.616;2023-08-06T03:19:53;60.47;;;27.08;;
81967;SDS011;71468;56.880;60.616;2023-08-06T03:22:19;82.32;;;30.10;;
81967;SDS011;71468;56.880;60.616;2023-08-06T03:24:49;73.30;;;30.45;;
81967;SDS011;71468;56.880;60.616;2023-08-06T03:27:17;67.13;;;30.00;;
81967;SDS011;71468;56.880;60.616;2023-08-06T03:29:44;68.57;;;29.27;;
81967;SDS011;71468;56.880;60.616;2023-08-06T03:32:11;70.13;;;31.58;;
81967;SDS011;71468;56.880;60.616;2023-08-06T03:34:39;61.90;;;30.67;;
81967;SDS011;71468;56.880;60.616;2023-08-06T03:37:06;78.00;;;32.72;;
81967;SDS011;71468;56.880;60.616;2023-08-06T03:39:33;68.85;;;32.63;;
81967;SDS011;71468;56.880;60.616;2023-08-06T03:42:00;60.53;;;29.65;;
81967;SDS011;71468;56.880;60.616;2023-08-06T03:44:27;73.78;;;32.10;;
81967;SDS011;71468;56.880;60.616;2023-08-06T03:46:54;57.65;;;28.13;;
81967;SDS011;71468;56.880;60.616;2023-08-06T03:49:21;61.63;;;29.63;;
81967;SDS011;71468;56.880;60.616;2023-08-06T03:51:47;63.60;;;29.30;;
81967;SDS011;71468;56.880;60.616;2023-08-06T03:54:14;64.90;;;31.50;;
81967;SDS011;71468;56.880;60.616;2023-08-06T03:56:41;56.67;;;28.20;;
81967;SDS011;71468;56.880;60.616;2023-08-06T03:59:07;52.70;;;26.08;;
81967;SDS011;71468;56.880;60.616;2023-08-06T04:01:34;59.80;;;29.05;;
81967;SDS011;71468;56.880;60.616;2023-08-06T04:04:01;61.72;;;27.58;;
81967;SDS011;71468;56.880;60.616;2023-08-06T04:06:27;58.13;;;27.75;;
81967;SDS011;71468;56.880;60.616;2023-08-06T04:08:54;67.72;;;31.45;;
81967;SDS011;71468;56.880;60.616;2023-08-06T04:11:20;55.72;;;27.88;;
81967;SDS011;71468;56.880;60.616;2023-08-06T04:13:47;58.92;;;28.35;;
81967;SDS011;71468;56.880;60.616;2023-08-06T04:16:13;62.15;;;29.38;;
81967;SDS011;71468;56.880;60.616;2023-08-06T04:18:41;61.38;;;30.30;;
81967;SDS011;71468;56.880;60.616;2023-08-06T04:21:07;51.63;;;24.65;;
81967;SDS011;71468;56.880;60.616;2023-08-06T04:23:34;56.35;;;26.33;;
81967;SDS011;71468;56.880;60.616;2023-08-06T04:26:05;61.72;;;29.58;;
81967;SDS011;71468;56.880;60.616;2023-08-06T04:28:34;69.55;;;30.25;;
81967;SDS011;71468;56.880;60.616;2023-08-06T04:31:01;75.80;;;29.55;;
81967;SDS011;71468;56.880;60.616;2023-08-06T04:33:30;64.10;;;29.25;;
81967;SDS011;71468;56.880;60.616;2023-08-06T04:35:59;78.20;;;30.90;;
81967;SDS011;71468;56.880;60.616;2023-08-06T04:38:27;94.03;;;32.33;;
81967;SDS011;71468;56.880;60.616;2023-08-06T04:40:54;50.45;;;22.40;;
